createdAt,value
2018-06-23T00:00:37.502Z,12.50
2018-06-23T00:05:39.692Z,12.52
2018-06-23T00:10:41.916Z,12.59
2018-06-23T00:15:44.215Z,12.55
2018-06-23T00:20:46.362Z,12.55
2018-06-23T00:25:54.248Z,12.65
2018-06-23T00:30:56.506Z,12.63
2018-06-23T00:35:58.652Z,12.72
2018-06-23T00:41:00.784Z,12.67
2018-06-23T00:46:02.989Z,12.69
2018-06-23T00:51:05.277Z,12.62
2018-06-23T00:56:07.434Z,12.57
2018-06-23T01:01:09.681Z,12.51
2018-06-23T01:06:11.840Z,12.59
2018-06-23T01:11:13.975Z,12.62
2018-06-23T01:16:16.110Z,12.68
2018-06-23T01:21:18.256Z,12.66
2018-06-23T01:26:20.386Z,12.77
2018-06-23T01:31:22.590Z,12.85
2018-06-23T01:36:24.719Z,12.84
2018-06-23T01:41:26.995Z,12.87
2018-06-23T01:46:29.134Z,13.00
2018-06-23T01:51:31.236Z,13.17
2018-06-23T01:56:33.364Z,13.36
2018-06-23T02:01:35.507Z,13.45
2018-06-23T02:06:37.669Z,13.62
2018-06-23T02:11:39.852Z,13.63
2018-06-23T02:16:47.591Z,13.76
2018-06-23T02:21:55.441Z,13.74
2018-06-23T02:27:03.447Z,13.70
2018-06-23T02:32:11.643Z,13.69
2018-06-23T02:37:13.824Z,13.66
2018-06-23T02:42:15.949Z,13.52
2018-06-23T02:47:18.104Z,13.57
2018-06-23T02:52:20.263Z,13.56
2018-06-23T02:57:22.620Z,13.60
2018-06-23T03:02:25.022Z,13.62
2018-06-23T03:07:27.176Z,13.68
2018-06-23T03:12:29.339Z,13.75
2018-06-23T03:17:31.484Z,13.77
2018-06-23T03:22:33.597Z,13.84
2018-06-23T03:27:35.706Z,13.82
2018-06-23T03:32:37.860Z,13.79
2018-06-23T03:37:39.993Z,13.73
2018-06-23T03:42:42.113Z,13.77
2018-06-23T03:47:44.256Z,13.79
2018-06-23T03:52:46.391Z,13.77
2018-06-23T03:57:48.527Z,13.77
2018-06-23T04:02:50.688Z,13.82
2018-06-23T04:07:52.897Z,13.82
2018-06-23T04:12:55.059Z,13.87
2018-06-23T04:17:57.206Z,13.88
2018-06-23T04:22:59.310Z,13.87
2018-06-23T04:28:01.445Z,14.04
2018-06-23T04:33:03.597Z,14.04
2018-06-23T04:38:05.811Z,14.12
2018-06-23T04:43:07.996Z,14.13
2018-06-23T04:48:10.144Z,14.14
2018-06-23T04:53:12.328Z,14.15
2018-06-23T04:58:14.431Z,14.08
2018-06-23T05:03:16.531Z,14.13
2018-06-23T05:08:18.625Z,14.20
2018-06-23T05:13:20.743Z,14.29
2018-06-23T05:18:22.966Z,14.26
2018-06-23T05:23:25.092Z,14.18
2018-06-23T05:28:27.248Z,14.33
2018-06-23T05:33:29.442Z,14.43
2018-06-23T05:38:31.630Z,14.51
2018-06-23T05:43:33.811Z,14.59
2018-06-23T05:48:35.985Z,14.59
2018-06-23T05:53:38.193Z,14.62
2018-06-23T05:58:40.359Z,14.63
2018-06-23T06:03:42.511Z,14.59
2018-06-23T06:13:53.484Z,14.88
2018-06-23T06:18:55.647Z,15.01
2018-06-23T06:23:57.814Z,15.09
2018-06-23T06:29:00.782Z,14.89
2018-06-23T06:34:02.970Z,15.10
2018-06-23T06:39:05.863Z,15.10
2018-06-23T06:44:08.007Z,15.25
2018-06-23T06:49:10.166Z,15.56
2018-06-23T06:54:12.377Z,15.55
2018-06-23T06:59:14.521Z,15.28
2018-06-23T07:04:17.667Z,15.40
2018-06-23T07:09:19.848Z,15.76
2018-06-23T07:14:22.033Z,15.77
2018-06-23T07:19:24.198Z,15.39
2018-06-23T07:24:26.732Z,15.40
2018-06-23T07:29:28.923Z,15.72
2018-06-23T07:34:31.195Z,16.27
2018-06-23T07:39:33.301Z,16.34
2018-06-23T07:44:35.493Z,16.50
2018-06-23T07:49:37.651Z,16.59
2018-06-23T07:54:39.835Z,16.40
2018-06-23T07:59:42.142Z,16.51
2018-06-23T08:04:44.333Z,16.49
2018-06-23T08:09:46.881Z,16.28
2018-06-23T08:14:49.012Z,16.25
2018-06-23T08:19:51.161Z,16.18
2018-06-23T08:24:53.580Z,15.94
2018-06-23T08:29:55.728Z,16.44
2018-06-23T08:34:57.930Z,16.70
2018-06-23T08:40:00.217Z,16.29
2018-06-23T08:45:02.393Z,16.29
2018-06-23T08:50:04.620Z,16.33
2018-06-23T08:55:06.839Z,16.19
2018-06-23T09:00:08.996Z,15.93
2018-06-23T09:05:11.215Z,15.87
2018-06-23T09:10:13.436Z,15.82
2018-06-23T09:15:15.653Z,15.91
2018-06-23T09:20:17.834Z,16.05
2018-06-23T09:25:20.088Z,15.85
2018-06-23T09:30:22.268Z,15.71
2018-06-23T09:35:24.464Z,15.64
2018-06-23T09:40:26.632Z,15.97
2018-06-23T09:45:28.799Z,16.76
2018-06-23T09:50:30.998Z,16.91
2018-06-23T09:55:33.179Z,16.49
2018-06-23T10:00:35.378Z,16.24
2018-06-23T10:05:37.568Z,16.29
2018-06-23T10:10:39.752Z,16.39
2018-06-23T10:15:42.041Z,16.23
2018-06-23T10:20:44.226Z,15.52
2018-06-23T10:25:46.403Z,16.33
2018-06-23T10:30:48.879Z,16.61
2018-06-23T10:35:51.168Z,17.10
2018-06-23T10:40:53.370Z,17.24
2018-06-23T10:45:55.635Z,17.20
2018-06-23T10:50:57.840Z,17.33
2018-06-23T10:56:00.143Z,17.12
2018-06-23T11:01:02.458Z,16.36
2018-06-23T11:06:04.643Z,15.93
2018-06-23T11:11:06.905Z,15.93
2018-06-23T11:16:09.096Z,15.94
2018-06-23T11:21:11.647Z,16.27
2018-06-23T11:26:13.870Z,16.60
2018-06-23T11:31:16.034Z,16.73
2018-06-23T11:36:18.250Z,16.70
2018-06-23T11:41:20.485Z,16.39
2018-06-23T11:46:22.673Z,16.22
2018-06-23T11:51:24.871Z,16.09
2018-06-23T11:56:27.035Z,16.05
2018-06-23T12:01:29.184Z,16.10
2018-06-23T12:06:31.374Z,16.07
2018-06-23T12:11:33.571Z,15.93
2018-06-23T12:16:35.763Z,15.72
2018-06-23T12:21:38.428Z,15.90
2018-06-23T12:26:40.601Z,16.06
2018-06-23T12:31:42.799Z,16.10
2018-06-23T12:36:45.006Z,15.95
2018-06-23T12:41:47.210Z,15.83
2018-06-23T12:46:49.388Z,15.16
2018-06-23T12:51:51.534Z,15.80
2018-06-23T12:56:53.783Z,16.41
2018-06-23T13:01:55.966Z,16.60
2018-06-23T13:06:58.124Z,16.33
2018-06-23T13:12:00.288Z,16.28
2018-06-23T13:17:02.535Z,16.32
2018-06-23T13:22:04.933Z,16.55
2018-06-23T13:27:07.122Z,16.60
2018-06-23T13:32:09.328Z,16.64
2018-06-23T13:37:11.660Z,16.41
2018-06-23T13:42:13.901Z,16.21
2018-06-23T13:47:16.144Z,15.68
2018-06-23T13:52:18.357Z,15.74
2018-06-23T13:57:20.652Z,15.90
2018-06-23T14:02:22.928Z,15.89
2018-06-23T14:07:25.141Z,15.99
2018-06-23T14:12:27.421Z,16.04
2018-06-23T14:17:29.562Z,15.80
2018-06-23T14:22:31.779Z,15.76
2018-06-23T14:27:34.002Z,15.78
2018-06-23T14:32:36.160Z,15.73
2018-06-23T14:37:38.400Z,15.87
2018-06-23T14:42:40.593Z,15.94
2018-06-23T14:47:42.766Z,15.77
2018-06-23T14:52:44.974Z,16.10
2018-06-23T14:57:47.212Z,15.97
2018-06-23T15:02:49.414Z,15.84
2018-06-23T15:07:51.617Z,15.80
2018-06-23T15:13:05.579Z,15.83
2018-06-23T15:18:07.771Z,15.89
2018-06-23T15:23:09.998Z,15.95
2018-06-23T15:28:12.165Z,16.10
2018-06-23T15:33:14.347Z,16.16
2018-06-23T15:38:16.595Z,16.05
2018-06-23T15:43:18.751Z,15.75
2018-06-23T15:48:20.916Z,15.69
2018-06-23T15:53:23.168Z,15.58
2018-06-23T15:58:25.330Z,15.59
2018-06-23T16:03:27.733Z,15.66
2018-06-23T16:08:29.970Z,15.56
2018-06-23T16:13:32.188Z,15.40
2018-06-23T16:18:34.381Z,15.23
2018-06-23T16:23:36.578Z,15.20
2018-06-23T16:28:38.740Z,15.06
2018-06-23T16:33:40.964Z,15.21
2018-06-23T16:38:43.172Z,15.39
2018-06-23T16:43:45.377Z,15.18
2018-06-23T16:48:47.592Z,15.12
2018-06-23T16:53:49.759Z,15.23
2018-06-23T16:58:51.933Z,15.18
2018-06-23T17:03:54.244Z,15.16
2018-06-23T17:08:56.356Z,15.07
2018-06-23T17:13:58.565Z,15.01
2018-06-23T17:19:00.768Z,14.97
2018-06-23T17:24:02.939Z,14.80
2018-06-23T17:29:05.155Z,14.80
2018-06-23T17:34:07.380Z,14.90
2018-06-23T17:39:10.321Z,14.91
2018-06-23T17:44:12.551Z,14.81
2018-06-23T17:49:14.769Z,14.80
2018-06-23T17:54:16.959Z,14.80
2018-06-23T17:59:19.183Z,14.76
2018-06-23T18:04:21.399Z,14.82
2018-06-23T18:09:23.588Z,14.65
2018-06-23T18:14:25.789Z,14.58
2018-06-23T18:19:27.995Z,14.56
2018-06-23T18:24:30.201Z,14.71
2018-06-23T18:29:32.374Z,14.68
2018-06-23T18:34:34.561Z,14.55
2018-06-23T18:39:36.788Z,14.53
2018-06-23T18:44:38.964Z,14.43
2018-06-23T18:49:41.152Z,14.47
2018-06-23T18:54:43.346Z,14.43
2018-06-23T18:59:45.514Z,14.41
2018-06-23T19:04:47.692Z,14.41
2018-06-23T19:09:49.913Z,14.52
2018-06-23T19:14:52.088Z,14.47
2018-06-23T19:19:54.350Z,14.46
2018-06-23T19:24:56.547Z,14.49
2018-06-23T19:29:58.789Z,14.45
2018-06-23T19:35:00.968Z,14.41
2018-06-23T19:40:03.466Z,14.37
2018-06-23T19:45:05.642Z,14.37
2018-06-23T19:50:07.845Z,14.37
2018-06-23T19:55:10.059Z,14.38
2018-06-23T20:00:12.232Z,14.48
2018-06-23T20:05:14.420Z,14.46
2018-06-23T20:10:16.612Z,14.37
2018-06-23T20:15:18.818Z,14.32
2018-06-23T20:20:21.053Z,14.31
2018-06-23T20:25:23.247Z,14.24
2018-06-23T20:30:25.411Z,14.15
2018-06-23T20:35:27.611Z,14.13
2018-06-23T20:40:29.838Z,14.14
2018-06-23T20:45:32.316Z,14.02
2018-06-23T20:50:34.523Z,13.98
2018-06-23T20:55:36.753Z,13.95
2018-06-23T21:00:38.938Z,13.99
2018-06-23T21:05:41.084Z,13.81
2018-06-23T21:10:44.551Z,13.93
2018-06-23T21:15:46.695Z,13.98
2018-06-23T21:20:48.908Z,14.02
2018-06-23T21:25:51.095Z,14.11
2018-06-23T21:30:53.368Z,14.07
2018-06-23T21:35:55.481Z,14.08
2018-06-23T21:40:57.713Z,13.86
2018-06-23T21:45:59.881Z,13.82
2018-06-23T21:51:02.097Z,13.80
2018-06-23T21:56:04.319Z,13.78
2018-06-23T22:01:06.652Z,13.69
2018-06-23T22:06:08.885Z,13.83
2018-06-23T22:11:11.057Z,13.92
2018-06-23T22:16:13.273Z,13.94
2018-06-23T22:21:15.469Z,14.01
2018-06-23T22:26:17.659Z,13.97
2018-06-23T22:31:19.818Z,14.08
2018-06-23T22:36:21.992Z,14.00
2018-06-23T22:41:24.184Z,13.95
2018-06-23T22:46:26.367Z,13.85
2018-06-23T22:51:29.086Z,13.49
2018-06-23T22:56:31.498Z,13.81
2018-06-23T23:01:33.960Z,13.74
2018-06-23T23:06:36.160Z,13.77
2018-06-23T23:11:38.364Z,13.84
2018-06-23T23:16:40.527Z,13.70
2018-06-23T23:21:42.720Z,13.83
2018-06-23T23:26:44.923Z,13.87
2018-06-23T23:31:47.098Z,13.91
2018-06-23T23:36:49.288Z,13.84
2018-06-23T23:41:51.490Z,13.66
2018-06-23T23:46:53.665Z,13.60
2018-06-23T23:51:55.796Z,13.57
2018-06-23T23:56:58.093Z,13.53
